createdAt,value
2023-02-13T00:00:02.706Z,9.84
2023-02-13T00:01:02.709Z,9.94
2023-02-13T00:02:02.784Z,9.84
2023-02-13T00:03:02.755Z,9.87
2023-02-13T00:04:02.791Z,9.89
2023-02-13T00:05:02.807Z,9.83
2023-02-13T00:06:02.820Z,9.79
2023-02-13T00:07:02.835Z,9.81
2023-02-13T00:08:02.850Z,9.78
2023-02-13T00:09:02.891Z,9.76
2023-02-13T00:10:02.906Z,9.72
2023-02-13T00:11:02.941Z,9.75
2023-02-13T00:12:02.940Z,9.76
2023-02-13T00:13:02.963Z,9.78
2023-02-13T00:14:02.984Z,9.69
2023-02-13T00:15:03.008Z,9.75
2023-02-13T00:16:03.085Z,9.68
2023-02-13T00:17:03.057Z,9.71
2023-02-13T00:18:03.076Z,9.69
2023-02-13T00:19:03.106Z,9.68
2023-02-13T00:20:03.113Z,9.71
2023-02-13T00:21:03.154Z,9.69
2023-02-13T00:22:03.158Z,9.61
2023-02-13T00:23:03.180Z,9.64
2023-02-13T00:24:03.202Z,9.64
2023-02-13T00:25:03.221Z,9.61
2023-02-13T00:26:03.251Z,9.69
2023-02-13T00:27:03.278Z,9.60
2023-02-13T00:28:03.337Z,9.68
2023-02-13T00:29:03.302Z,9.64
2023-02-13T00:30:03.327Z,9.61
2023-02-13T00:31:03.464Z,9.68
2023-02-13T00:32:03.506Z,9.65
2023-02-13T00:33:03.386Z,9.64
2023-02-13T00:34:03.405Z,9.65
2023-02-13T00:35:03.431Z,9.58
2023-02-13T00:36:03.449Z,9.60
2023-02-13T00:37:03.472Z,9.60
2023-02-13T00:38:03.495Z,9.61
2023-02-13T00:39:03.526Z,9.64
2023-02-13T00:40:03.534Z,9.64
2023-02-13T00:41:03.572Z,9.69
2023-02-13T00:42:03.577Z,9.64
2023-02-13T00:43:03.600Z,9.60
2023-02-13T00:44:03.621Z,9.60
2023-02-13T00:45:03.641Z,9.61
2023-02-13T00:46:03.694Z,9.65
2023-02-13T00:47:03.684Z,9.64
2023-02-13T00:48:03.716Z,9.50
2023-02-13T00:49:03.737Z,9.65
2023-02-13T00:50:03.748Z,9.53
2023-02-13T00:51:03.781Z,9.56
2023-02-13T00:52:03.815Z,9.57
2023-02-13T00:53:03.820Z,9.51
2023-02-13T00:54:03.843Z,9.56
2023-02-13T00:55:03.856Z,9.56
2023-02-13T00:56:31.712Z,9.53
2023-02-13T00:57:03.901Z,9.57
2023-02-13T00:58:03.974Z,9.50
2023-02-13T00:59:03.938Z,9.54
2023-02-13T01:00:03.956Z,9.58
2023-02-13T01:01:03.984Z,9.58
2023-02-13T01:02:04.013Z,9.57
2023-02-13T01:03:04.026Z,9.56
2023-02-13T01:04:04.129Z,9.54
2023-02-13T01:05:04.075Z,9.54
2023-02-13T01:06:04.093Z,9.53
2023-02-13T01:07:04.118Z,9.40
2023-02-13T01:08:04.134Z,9.46
2023-02-13T01:09:04.158Z,9.42
2023-02-13T01:10:04.190Z,9.42
2023-02-13T01:11:04.204Z,9.48
2023-02-13T01:12:04.232Z,9.51
2023-02-13T01:13:04.241Z,9.56
2023-02-13T01:14:04.264Z,9.48
2023-02-13T01:15:04.284Z,9.43
2023-02-13T01:16:04.367Z,9.48
2023-02-13T01:17:04.326Z,9.48
2023-02-13T01:18:04.347Z,9.60
2023-02-13T01:19:04.369Z,9.53
2023-02-13T01:20:04.390Z,9.53
2023-02-13T01:21:04.417Z,9.57
2023-02-13T01:22:04.446Z,9.50
2023-02-13T01:23:04.455Z,9.51
2023-02-13T01:24:04.481Z,9.50
2023-02-13T01:25:04.503Z,9.60
2023-02-13T01:26:04.531Z,9.53
2023-02-13T01:27:04.546Z,9.64
2023-02-13T01:28:04.575Z,9.69
2023-02-13T01:29:04.585Z,9.64
2023-02-13T01:30:04.616Z,9.53
2023-02-13T01:31:04.808Z,9.54
2023-02-13T01:32:04.722Z,9.51
2023-02-13T01:33:04.670Z,9.54
2023-02-13T01:34:04.699Z,9.50
2023-02-13T01:35:04.738Z,9.56
2023-02-13T01:36:04.735Z,9.50
2023-02-13T01:37:04.762Z,9.53
2023-02-13T01:38:04.789Z,9.57
2023-02-13T01:39:04.803Z,9.46
2023-02-13T01:40:04.858Z,9.56
2023-02-13T01:41:04.847Z,9.57
2023-02-13T01:42:04.858Z,9.54
2023-02-13T01:43:04.891Z,9.48
2023-02-13T01:44:04.903Z,9.53
2023-02-13T01:45:04.969Z,9.50
2023-02-13T01:46:04.946Z,9.46
2023-02-13T01:47:04.964Z,9.42
2023-02-13T01:48:05.961Z,9.46
2023-02-13T01:49:05.006Z,9.42
2023-02-13T01:50:05.035Z,9.51
2023-02-13T01:51:05.051Z,9.39
2023-02-13T01:52:05.068Z,9.48
2023-02-13T01:53:05.093Z,9.50
2023-02-13T01:54:05.115Z,9.53
2023-02-13T01:55:05.140Z,9.50
2023-02-13T01:56:05.158Z,9.48
2023-02-13T01:57:05.174Z,9.42
2023-02-13T01:58:05.204Z,9.46
2023-02-13T01:59:05.218Z,9.39
2023-02-13T02:00:05.237Z,9.42
2023-02-13T02:01:05.259Z,9.43
2023-02-13T02:02:05.409Z,9.46
2023-02-13T02:03:05.310Z,9.43
2023-02-13T02:04:05.324Z,9.42
2023-02-13T02:05:05.345Z,9.40
2023-02-13T02:06:05.399Z,9.47
2023-02-13T02:07:05.386Z,9.38
2023-02-13T02:08:05.406Z,9.40
2023-02-13T02:09:05.430Z,9.38
2023-02-13T02:10:05.452Z,9.39
2023-02-13T02:11:05.474Z,9.35
2023-02-13T02:12:05.494Z,9.42
2023-02-13T02:13:05.516Z,9.36
2023-02-13T02:14:05.536Z,9.42
2023-02-13T02:15:05.560Z,9.36
2023-02-13T02:16:05.624Z,9.33
2023-02-13T02:17:05.604Z,9.39
2023-02-13T02:18:05.624Z,9.31
2023-02-13T02:19:05.645Z,9.24
2023-02-13T02:20:05.668Z,9.20
2023-02-13T02:21:05.686Z,9.21
2023-02-13T02:22:05.707Z,9.31
2023-02-13T02:23:05.750Z,9.15
2023-02-13T02:24:05.752Z,9.32
2023-02-13T02:25:05.773Z,9.26
2023-02-13T02:26:05.821Z,9.26
2023-02-13T02:27:05.856Z,9.33
2023-02-13T02:28:05.917Z,9.29
2023-02-13T02:29:05.867Z,9.21
2023-02-13T02:30:05.899Z,9.26
2023-02-13T02:31:06.011Z,9.26
2023-02-13T02:32:05.918Z,9.26
2023-02-13T02:33:05.944Z,9.32
2023-02-13T02:34:05.981Z,9.24
2023-02-13T02:35:05.986Z,9.32
2023-02-13T02:36:06.006Z,9.21
2023-02-13T02:37:06.028Z,9.24
2023-02-13T02:38:06.056Z,9.36
2023-02-13T02:39:06.074Z,9.29
2023-02-13T02:40:06.092Z,9.33
2023-02-13T02:41:06.114Z,9.23
2023-02-13T02:42:06.134Z,9.15
2023-02-13T02:43:06.154Z,9.20
2023-02-13T02:44:06.175Z,9.13
2023-02-13T02:45:06.196Z,9.15
2023-02-13T02:46:06.219Z,9.21
2023-02-13T02:47:06.237Z,9.21
2023-02-13T02:48:06.274Z,9.23
2023-02-13T02:49:06.282Z,9.20
2023-02-13T02:50:06.307Z,9.14
2023-02-13T02:51:06.320Z,9.14
2023-02-13T02:52:06.350Z,9.26
2023-02-13T02:53:06.362Z,9.26
2023-02-13T02:54:06.380Z,9.26
2023-02-13T02:55:06.403Z,9.20
2023-02-13T02:56:06.424Z,9.13
2023-02-13T02:57:06.445Z,9.13
2023-02-13T02:58:06.465Z,9.17
2023-02-13T02:59:06.486Z,9.20
2023-02-13T03:00:06.506Z,9.23
2023-02-13T03:01:06.571Z,9.23
2023-02-13T03:02:06.548Z,9.21
2023-02-13T03:03:06.573Z,9.29
2023-02-13T03:04:06.661Z,9.26
2023-02-13T03:05:06.614Z,9.29
2023-02-13T03:06:06.641Z,9.15
2023-02-13T03:07:06.654Z,9.18
2023-02-13T03:08:06.680Z,9.14
2023-02-13T03:09:06.723Z,9.17
2023-02-13T03:10:06.726Z,9.14
2023-02-13T03:11:06.736Z,9.17
2023-02-13T03:12:06.757Z,9.24
2023-02-13T03:13:06.784Z,9.20
2023-02-13T03:14:06.800Z,9.18
2023-02-13T03:15:06.852Z,9.26
2023-02-13T03:16:06.862Z,9.20
2023-02-13T03:17:06.869Z,9.17
2023-02-13T03:18:06.888Z,9.17
2023-02-13T03:19:06.904Z,9.15
2023-02-13T03:20:06.947Z,9.20
2023-02-13T03:21:06.960Z,9.32
2023-02-13T03:22:06.982Z,9.24
2023-02-13T03:23:06.989Z,9.26
2023-02-13T03:24:07.005Z,9.23
2023-02-13T03:25:07.035Z,9.14
2023-02-13T03:26:07.052Z,9.31
2023-02-13T03:27:07.081Z,9.29
2023-02-13T03:28:07.121Z,9.28
2023-02-13T03:29:07.115Z,9.24
2023-02-13T03:30:07.138Z,9.20
2023-02-13T03:31:07.280Z,9.20
2023-02-13T03:32:07.178Z,9.17
2023-02-13T03:33:07.203Z,9.17
2023-02-13T03:34:07.224Z,9.21
2023-02-13T03:35:07.245Z,9.13
2023-02-13T03:36:07.260Z,9.21
2023-02-13T03:37:07.281Z,9.24
2023-02-13T03:38:07.312Z,9.24
2023-02-13T03:39:07.329Z,9.21
2023-02-13T03:40:07.346Z,9.23
2023-02-13T03:41:07.372Z,9.32
2023-02-13T03:42:07.393Z,9.23
2023-02-13T03:43:07.413Z,9.31
2023-02-13T03:44:07.429Z,9.35
2023-02-13T03:45:07.458Z,9.38
2023-02-13T03:46:07.507Z,9.38
2023-02-13T03:47:07.507Z,9.32
2023-02-13T03:48:07.515Z,9.29
2023-02-13T03:49:07.551Z,9.17
2023-02-13T03:50:07.559Z,9.31
2023-02-13T03:51:07.582Z,9.20
2023-02-13T03:52:07.600Z,9.20
2023-02-13T03:53:07.624Z,9.23
2023-02-13T03:54:07.645Z,9.21
2023-02-13T03:55:07.666Z,9.20
2023-02-13T03:56:07.692Z,9.11
2023-02-13T03:57:07.710Z,9.13
2023-02-13T03:58:07.730Z,9.18
2023-02-13T03:59:07.748Z,9.21
2023-02-13T04:00:07.779Z,9.14
2023-02-13T04:01:07.800Z,9.24
2023-02-13T04:02:07.860Z,9.24
2023-02-13T04:03:07.837Z,9.23
2023-02-13T04:04:07.866Z,9.26
2023-02-13T04:05:07.875Z,9.29
2023-02-13T04:06:07.895Z,9.28
2023-02-13T04:07:07.917Z,9.14
2023-02-13T04:08:07.935Z,9.17
2023-02-13T04:09:07.964Z,9.11
2023-02-13T04:10:08.009Z,9.14
2023-02-13T04:11:08.000Z,9.21
2023-02-13T04:12:08.031Z,9.14
2023-02-13T04:13:08.043Z,9.13
2023-02-13T04:14:08.064Z,9.14
2023-02-13T04:15:08.088Z,9.18
2023-02-13T04:16:08.114Z,9.14
2023-02-13T04:17:08.130Z,9.15
2023-02-13T04:18:10.320Z,9.14
2023-02-13T04:19:08.173Z,9.14
2023-02-13T04:20:08.188Z,9.18
2023-02-13T04:21:08.213Z,9.13
2023-02-13T04:22:08.234Z,9.14
2023-02-13T04:23:08.255Z,9.14
2023-02-13T04:24:08.285Z,9.17
2023-02-13T04:25:08.312Z,9.14
2023-02-13T04:26:08.317Z,9.20
2023-02-13T04:27:08.426Z,9.13
2023-02-13T04:28:08.406Z,9.10
2023-02-13T04:29:08.383Z,9.13
2023-02-13T04:30:08.401Z,9.08
2023-02-13T04:31:08.564Z,9.17
2023-02-13T04:32:08.453Z,9.21
2023-02-13T04:33:08.468Z,9.14
2023-02-13T04:34:08.487Z,9.08
2023-02-13T04:35:08.508Z,9.17
2023-02-13T04:36:08.527Z,9.11
2023-02-13T04:37:08.550Z,9.21
2023-02-13T04:38:08.576Z,9.24
2023-02-13T04:39:08.593Z,9.23
2023-02-13T04:40:08.632Z,9.24
2023-02-13T04:41:08.643Z,9.15
2023-02-13T04:42:08.662Z,9.24
2023-02-13T04:43:08.684Z,9.35
2023-02-13T04:44:08.699Z,9.35
2023-02-13T04:45:08.718Z,9.36
2023-02-13T04:46:08.839Z,9.31
2023-02-13T04:47:08.767Z,9.36
2023-02-13T04:48:08.791Z,9.39
2023-02-13T04:49:08.806Z,9.33
2023-02-13T04:50:08.835Z,9.26
2023-02-13T04:51:08.850Z,9.32
2023-02-13T04:52:08.868Z,9.23
2023-02-13T04:53:08.894Z,9.23
2023-02-13T04:54:09.029Z,9.17
2023-02-13T04:55:08.933Z,9.23
2023-02-13T04:56:08.956Z,9.13
2023-02-13T04:57:08.974Z,9.23
2023-02-13T04:58:09.001Z,9.24
2023-02-13T04:59:09.021Z,9.21
2023-02-13T05:00:09.053Z,9.13
2023-02-13T05:01:09.072Z,9.18
2023-02-13T05:02:09.083Z,9.14
2023-02-13T05:03:09.158Z,9.13
2023-02-13T05:04:09.216Z,9.15
2023-02-13T05:05:09.148Z,9.15
2023-02-13T05:06:09.187Z,9.11
2023-02-13T05:07:09.196Z,9.11
2023-02-13T05:08:09.216Z,9.24
2023-02-13T05:09:09.233Z,9.24
2023-02-13T05:10:09.266Z,9.23
2023-02-13T05:11:09.274Z,9.24
2023-02-13T05:12:09.299Z,9.23
2023-02-13T05:13:09.314Z,9.17
2023-02-13T05:14:09.342Z,9.14
2023-02-13T05:15:09.361Z,9.24
2023-02-13T05:16:09.616Z,9.23
2023-02-13T05:17:09.397Z,9.23
2023-02-13T05:18:09.418Z,9.11
2023-02-13T05:19:09.442Z,9.17
2023-02-13T05:20:09.478Z,9.17
2023-02-13T05:21:09.488Z,9.10
2023-02-13T05:22:09.508Z,9.17
2023-02-13T05:23:09.526Z,9.11
2023-02-13T05:24:09.548Z,9.15
2023-02-13T05:25:09.568Z,9.18
2023-02-13T05:26:09.599Z,9.20
2023-02-13T05:27:09.610Z,9.26
2023-02-13T05:28:09.636Z,9.32
2023-02-13T05:29:09.665Z,9.32
2023-02-13T05:30:09.676Z,9.24
2023-02-13T05:31:09.794Z,9.26
2023-02-13T05:32:09.826Z,9.32
2023-02-13T05:33:09.738Z,9.31
2023-02-13T05:34:09.757Z,9.32
2023-02-13T05:35:09.784Z,9.39
2023-02-13T05:36:09.819Z,9.39
2023-02-13T05:37:09.824Z,9.42
2023-02-13T05:38:09.845Z,9.39
2023-02-13T05:39:09.867Z,9.40
2023-02-13T05:40:09.959Z,9.39
2023-02-13T05:41:09.909Z,9.39
2023-02-13T05:42:09.933Z,9.43
2023-02-13T05:43:09.956Z,9.43
2023-02-13T05:44:09.981Z,9.43
2023-02-13T05:45:09.996Z,9.42
2023-02-13T05:46:10.060Z,9.40
2023-02-13T05:47:10.037Z,9.40
2023-02-13T05:48:10.060Z,9.42
2023-02-13T05:49:10.086Z,9.42
2023-02-13T05:50:10.114Z,9.32
2023-02-13T05:51:10.127Z,9.24
2023-02-13T05:52:10.148Z,9.26
2023-02-13T05:53:10.168Z,9.29
2023-02-13T05:54:10.192Z,9.24
2023-02-13T05:55:10.209Z,9.31
2023-02-13T05:56:10.231Z,9.28
2023-02-13T05:57:10.261Z,9.24
2023-02-13T05:58:10.270Z,9.31
2023-02-13T05:59:10.294Z,9.35
2023-02-13T06:00:10.311Z,9.36
2023-02-13T06:01:10.333Z,9.38
2023-02-13T06:02:10.370Z,9.35
2023-02-13T06:03:10.376Z,9.36
2023-02-13T06:04:10.439Z,9.38
2023-02-13T06:05:10.415Z,9.36
2023-02-13T06:06:10.435Z,9.35
2023-02-13T06:07:10.468Z,9.29
2023-02-13T06:08:10.484Z,9.31
2023-02-13T06:09:10.503Z,9.29
2023-02-13T06:10:10.522Z,9.23
2023-02-13T06:11:10.543Z,9.26
2023-02-13T06:12:10.563Z,9.23
2023-02-13T06:13:10.586Z,9.23
2023-02-13T06:14:10.608Z,9.28
2023-02-13T06:15:10.632Z,9.26
2023-02-13T06:16:10.746Z,9.39
2023-02-13T06:17:10.674Z,9.35
2023-02-13T06:18:10.695Z,9.32
2023-02-13T06:19:10.712Z,9.33
2023-02-13T06:20:10.748Z,9.39
2023-02-13T06:21:10.759Z,9.38
2023-02-13T06:22:10.784Z,9.32
2023-02-13T06:23:10.802Z,9.42
2023-02-13T06:24:10.819Z,9.38
2023-02-13T06:25:10.842Z,9.29
2023-02-13T06:26:10.863Z,9.36
2023-02-13T06:27:10.882Z,9.38
2023-02-13T06:28:10.970Z,9.38
2023-02-13T06:29:10.932Z,9.32
2023-02-13T06:30:10.956Z,9.38
2023-02-13T06:31:11.113Z,9.29
2023-02-13T06:32:10.999Z,9.33
2023-02-13T06:33:11.011Z,9.29
2023-02-13T06:34:11.034Z,9.23
2023-02-13T06:35:11.055Z,9.13
2023-02-13T06:36:11.078Z,9.11
2023-02-13T06:37:11.096Z,9.15
2023-02-13T06:38:11.126Z,9.15
2023-02-13T06:39:11.156Z,9.11
2023-02-13T06:40:11.156Z,9.18
2023-02-13T06:41:11.191Z,9.11
2023-02-13T06:42:11.205Z,9.17
2023-02-13T06:43:11.231Z,9.13
2023-02-13T06:44:11.244Z,9.18
2023-02-13T06:45:11.289Z,9.13
2023-02-13T06:46:11.313Z,9.14
2023-02-13T06:47:11.308Z,9.15
2023-02-13T06:48:11.332Z,9.13
2023-02-13T06:49:11.354Z,9.14
2023-02-13T06:50:11.378Z,9.10
2023-02-13T06:51:11.391Z,9.08
2023-02-13T06:52:11.422Z,9.01
2023-02-13T06:53:11.431Z,9.13
2023-02-13T06:54:11.508Z,9.08
2023-02-13T06:55:11.478Z,9.10
2023-02-13T06:56:11.499Z,9.13
2023-02-13T06:57:11.520Z,9.11
2023-02-13T06:58:11.540Z,9.10
2023-02-13T06:59:11.572Z,9.14
2023-02-13T07:00:11.584Z,9.13
2023-02-13T07:01:11.680Z,9.04
2023-02-13T07:02:11.639Z,9.02
2023-02-13T07:03:11.695Z,9.13
2023-02-13T07:04:11.666Z,9.08
2023-02-13T07:05:11.686Z,9.05
2023-02-13T07:06:11.715Z,8.98
2023-02-13T07:07:11.738Z,9.01
2023-02-13T07:08:11.751Z,8.96
2023-02-13T07:09:11.774Z,9.01
2023-02-13T07:10:11.798Z,9.04
2023-02-13T07:11:11.816Z,9.08
2023-02-13T07:12:11.840Z,8.94
2023-02-13T07:13:11.858Z,8.95
2023-02-13T07:14:11.878Z,9.08
2023-02-13T07:15:11.908Z,9.02
2023-02-13T07:16:11.935Z,9.11
2023-02-13T07:17:11.950Z,9.13
2023-02-13T07:18:11.961Z,9.21
2023-02-13T07:19:11.982Z,9.11
2023-02-13T07:20:12.004Z,9.14
2023-02-13T07:21:12.024Z,9.15
2023-02-13T07:22:12.052Z,9.10
2023-02-13T07:23:12.074Z,9.10
2023-02-13T07:24:12.091Z,9.02
2023-02-13T07:25:12.110Z,9.04
2023-02-13T07:26:12.142Z,9.04
2023-02-13T07:27:12.148Z,9.05
2023-02-13T07:28:12.212Z,9.02
2023-02-13T07:29:12.555Z,9.14
2023-02-13T07:30:12.215Z,9.05
2023-02-13T07:31:12.345Z,9.13
2023-02-13T07:32:12.257Z,9.08
2023-02-13T07:33:13.643Z,9.02
2023-02-13T07:34:12.299Z,8.98
2023-02-13T07:35:12.325Z,9.01
2023-02-13T07:36:12.351Z,8.95
2023-02-13T07:37:12.365Z,8.96
2023-02-13T07:38:12.409Z,9.04
2023-02-13T07:39:12.403Z,9.02
2023-02-13T07:40:12.429Z,9.14
2023-02-13T07:41:12.448Z,9.15
2023-02-13T07:42:12.470Z,9.15
2023-02-13T07:43:12.504Z,9.23
2023-02-13T07:44:12.513Z,9.24
2023-02-13T07:45:12.534Z,9.24
2023-02-13T07:46:12.560Z,9.28
2023-02-13T07:47:12.581Z,9.26
2023-02-13T07:48:12.605Z,9.32
2023-02-13T07:49:12.629Z,9.26
2023-02-13T07:50:12.656Z,9.23
2023-02-13T07:51:12.663Z,9.32
2023-02-13T07:52:12.688Z,9.24
2023-02-13T07:53:12.707Z,9.33
2023-02-13T07:54:12.735Z,9.31
2023-02-13T07:55:12.755Z,9.40
2023-02-13T07:56:12.772Z,9.46
2023-02-13T07:57:12.793Z,9.40
2023-02-13T07:58:12.813Z,9.38
2023-02-13T07:59:12.837Z,9.40
2023-02-13T08:00:12.857Z,9.48
2023-02-13T08:01:12.892Z,9.56
2023-02-13T08:02:13.012Z,9.54
2023-02-13T08:03:12.937Z,9.53
2023-02-13T08:04:13.063Z,9.48
2023-02-13T08:05:12.963Z,9.56
2023-02-13T08:06:12.996Z,9.51
2023-02-13T08:07:13.005Z,9.74
2023-02-13T08:08:13.026Z,9.50
2023-02-13T08:09:13.049Z,9.65
2023-02-13T08:10:13.074Z,9.61
2023-02-13T08:11:13.104Z,9.60
2023-02-13T08:12:13.112Z,9.61
2023-02-13T08:13:13.138Z,9.69
2023-02-13T08:14:13.172Z,9.65
2023-02-13T08:15:13.179Z,9.74
2023-02-13T08:16:13.240Z,9.76
2023-02-13T08:17:13.216Z,9.83
2023-02-13T08:18:13.237Z,9.84
2023-02-13T08:19:13.268Z,9.86
2023-02-13T08:20:13.304Z,9.79
2023-02-13T08:21:13.304Z,9.94
2023-02-13T08:22:13.322Z,9.90
2023-02-13T08:23:13.373Z,9.90
2023-02-13T08:24:13.369Z,9.89
2023-02-13T08:25:13.401Z,9.90
2023-02-13T08:26:13.444Z,9.97
2023-02-13T08:27:13.444Z,10.02
2023-02-13T08:28:13.486Z,10.01
2023-02-13T08:29:13.485Z,10.02
2023-02-13T08:30:13.536Z,10.12
2023-02-13T08:31:13.612Z,10.05
2023-02-13T08:32:13.591Z,10.12
2023-02-13T08:33:13.566Z,10.05
2023-02-13T08:34:13.589Z,10.05
2023-02-13T08:35:13.605Z,10.15
2023-02-13T08:36:13.629Z,10.22
2023-02-13T08:37:13.656Z,10.23
2023-02-13T08:38:13.671Z,10.23
2023-02-13T08:39:13.693Z,10.27
2023-02-13T08:40:13.732Z,10.27
2023-02-13T08:41:13.765Z,10.27
2023-02-13T08:42:15.920Z,10.29
2023-02-13T08:43:13.784Z,10.40
2023-02-13T08:44:13.802Z,10.42
2023-02-13T08:45:13.831Z,10.34
2023-02-13T08:46:13.927Z,10.36
2023-02-13T08:47:13.877Z,10.32
2023-02-13T08:48:13.899Z,10.38
2023-02-13T08:49:13.913Z,10.45
2023-02-13T08:50:13.933Z,10.44
2023-02-13T08:51:13.962Z,10.38
2023-02-13T08:52:13.977Z,10.47
2023-02-13T08:53:14.007Z,10.55
2023-02-13T08:54:14.024Z,10.55
2023-02-13T08:55:14.061Z,10.64
2023-02-13T08:56:14.070Z,10.60
2023-02-13T08:57:14.084Z,10.60
2023-02-13T08:58:14.115Z,10.61
2023-02-13T08:59:14.143Z,10.61
2023-02-13T09:00:14.158Z,10.61
2023-02-13T09:01:14.304Z,10.66
2023-02-13T09:02:14.203Z,10.59
2023-02-13T09:03:14.341Z,10.55
2023-02-13T09:04:14.246Z,10.63
2023-02-13T09:05:14.272Z,10.66
2023-02-13T09:06:14.307Z,10.64
2023-02-13T09:07:14.318Z,10.64
2023-02-13T09:08:14.336Z,10.67
2023-02-13T09:09:14.364Z,10.67
2023-02-13T09:10:14.378Z,10.76
2023-02-13T09:11:14.403Z,10.74
2023-02-13T09:12:14.424Z,10.70
2023-02-13T09:13:14.463Z,10.79
2023-02-13T09:14:14.474Z,10.78
2023-02-13T09:15:14.497Z,10.74
2023-02-13T09:16:14.518Z,10.81
2023-02-13T09:17:14.541Z,10.91
2023-02-13T09:18:14.562Z,10.89
2023-02-13T09:19:14.583Z,11.06
2023-02-13T09:20:14.606Z,11.03
2023-02-13T09:21:14.632Z,11.06
2023-02-13T09:22:14.656Z,10.97
2023-02-13T09:23:14.677Z,11.03
2023-02-13T09:24:14.700Z,11.09
2023-02-13T09:25:14.728Z,11.18
2023-02-13T09:26:14.755Z,11.15
2023-02-13T09:27:14.888Z,11.24
2023-02-13T09:28:14.846Z,11.27
2023-02-13T09:29:14.812Z,11.35
2023-02-13T09:30:14.836Z,11.28
2023-02-13T09:31:14.974Z,11.46
2023-02-13T09:32:15.006Z,11.43
2023-02-13T09:33:14.907Z,11.40
2023-02-13T09:34:14.929Z,11.51
2023-02-13T09:35:14.982Z,11.43
2023-02-13T09:36:14.977Z,11.44
2023-02-13T09:37:14.997Z,11.52
2023-02-13T09:38:15.022Z,11.58
2023-02-13T09:39:15.049Z,11.64
2023-02-13T09:40:15.068Z,11.73
2023-02-13T09:41:17.143Z,11.61
2023-02-13T09:42:15.188Z,11.78
2023-02-13T09:43:15.147Z,11.78
2023-02-13T09:44:15.166Z,11.80
2023-02-13T09:45:15.191Z,11.85
2023-02-13T09:46:15.219Z,11.76
2023-02-13T09:47:15.228Z,11.79
2023-02-13T09:48:15.254Z,11.70
2023-02-13T09:49:15.279Z,11.62
2023-02-13T09:50:15.300Z,11.57
2023-02-13T09:51:15.329Z,11.70
2023-02-13T09:52:15.344Z,11.75
2023-02-13T09:53:15.368Z,11.73
2023-02-13T09:54:15.392Z,11.85
2023-02-13T09:55:15.416Z,11.85
2023-02-13T09:56:15.438Z,11.86
2023-02-13T09:57:15.527Z,11.85
2023-02-13T09:58:15.484Z,11.91
2023-02-13T09:59:15.523Z,11.88
2023-02-13T10:00:15.532Z,11.82
2023-02-13T10:01:15.571Z,11.73
2023-02-13T10:02:15.583Z,11.61
2023-02-13T10:03:15.599Z,11.55
2023-02-13T10:04:15.624Z,11.51
2023-02-13T10:05:15.662Z,11.55
2023-02-13T10:06:15.672Z,11.55
2023-02-13T10:07:15.779Z,11.51
2023-02-13T10:08:15.719Z,11.55
2023-02-13T10:09:15.739Z,11.58
2023-02-13T10:10:15.774Z,11.65
2023-02-13T10:11:15.784Z,11.52
2023-02-13T10:12:15.903Z,11.57
2023-02-13T10:13:15.838Z,11.49
2023-02-13T10:14:15.860Z,11.57
2023-02-13T10:15:15.879Z,11.49
2023-02-13T10:16:15.988Z,11.54
2023-02-13T10:17:15.928Z,11.51
2023-02-13T10:18:15.959Z,11.58
2023-02-13T10:19:15.970Z,11.44
2023-02-13T10:20:15.995Z,11.58
2023-02-13T10:21:16.021Z,11.61
2023-02-13T10:22:16.043Z,11.72
2023-02-13T10:23:16.064Z,11.79
2023-02-13T10:24:16.087Z,11.75
2023-02-13T10:25:16.129Z,11.73
2023-02-13T10:26:16.142Z,11.73
2023-02-13T10:27:16.160Z,11.85
2023-02-13T10:28:16.237Z,11.72
2023-02-13T10:29:16.208Z,11.78
2023-02-13T10:30:16.223Z,11.67
2023-02-13T10:31:16.405Z,11.62
2023-02-13T10:32:16.469Z,11.58
2023-02-13T10:33:16.298Z,11.58
2023-02-13T10:34:16.323Z,11.64
2023-02-13T10:35:16.342Z,11.65
2023-02-13T10:36:16.365Z,11.61
2023-02-13T10:37:16.390Z,11.65
2023-02-13T10:38:16.414Z,11.60
2023-02-13T10:39:16.436Z,11.61
2023-02-13T10:40:16.459Z,11.57
2023-02-13T10:41:16.488Z,11.44
2023-02-13T10:42:16.570Z,11.44
2023-02-13T10:43:16.537Z,11.49
2023-02-13T10:44:16.555Z,11.61
2023-02-13T10:45:16.573Z,11.55
2023-02-13T10:46:16.619Z,11.64
2023-02-13T10:47:16.624Z,11.64
2023-02-13T10:48:16.647Z,11.73
2023-02-13T10:49:16.668Z,11.70
2023-02-13T10:50:16.695Z,11.73
2023-02-13T10:51:16.714Z,11.86
2023-02-13T10:52:16.753Z,11.90
2023-02-13T10:53:16.761Z,11.99
2023-02-13T10:54:16.785Z,11.99
2023-02-13T10:55:16.806Z,11.99
2023-02-13T10:56:16.833Z,12.02
2023-02-13T10:57:16.871Z,12.10
2023-02-13T10:58:16.879Z,11.98
2023-02-13T10:59:16.900Z,12.04
2023-02-13T11:00:16.922Z,12.04
2023-02-13T11:01:16.951Z,11.98
2023-02-13T11:02:16.973Z,12.05
2023-02-13T11:03:16.992Z,12.01
2023-02-13T11:04:17.078Z,12.14
2023-02-13T11:05:17.043Z,12.09
2023-02-13T11:06:17.082Z,12.01
2023-02-13T11:07:17.105Z,12.02
2023-02-13T11:08:17.127Z,12.01
2023-02-13T11:09:17.130Z,12.13
2023-02-13T11:10:17.252Z,12.07
2023-02-13T11:11:17.180Z,11.96
2023-02-13T11:12:17.202Z,11.96
2023-02-13T11:13:17.231Z,11.96
2023-02-13T11:14:17.248Z,11.85
2023-02-13T11:15:17.275Z,11.76
2023-02-13T11:16:17.391Z,11.64
2023-02-13T11:17:17.317Z,11.60
2023-02-13T11:18:18.650Z,11.47
2023-02-13T11:19:17.366Z,11.60
2023-02-13T11:20:17.406Z,11.58
2023-02-13T11:21:17.406Z,11.62
2023-02-13T11:22:17.436Z,11.57
2023-02-13T11:23:17.456Z,11.58
2023-02-13T11:24:17.483Z,11.67
2023-02-13T11:25:17.504Z,11.76
2023-02-13T11:26:17.529Z,11.76
2023-02-13T11:27:17.553Z,11.83
2023-02-13T11:28:17.693Z,11.82
2023-02-13T11:29:17.600Z,11.98
2023-02-13T11:30:17.624Z,11.88
2023-02-13T11:31:17.821Z,11.88
2023-02-13T11:32:17.759Z,11.91
2023-02-13T11:33:17.691Z,11.95
2023-02-13T11:34:17.715Z,11.98
2023-02-13T11:35:17.743Z,11.99
2023-02-13T11:36:17.765Z,12.07
2023-02-13T11:37:17.795Z,12.19
2023-02-13T11:38:17.816Z,12.12
2023-02-13T11:39:17.833Z,12.21
2023-02-13T11:40:17.857Z,12.13
2023-02-13T11:41:17.877Z,12.32
2023-02-13T11:42:17.909Z,12.32
2023-02-13T11:43:17.932Z,12.49
2023-02-13T11:44:17.953Z,12.47
2023-02-13T11:45:17.975Z,12.64
2023-02-13T11:46:18.013Z,12.62
2023-02-13T11:47:18.027Z,12.60
2023-02-13T11:48:18.050Z,12.57
2023-02-13T11:49:18.072Z,12.62
2023-02-13T11:50:18.095Z,12.62
2023-02-13T11:51:18.118Z,12.62
2023-02-13T11:52:18.142Z,12.64
2023-02-13T11:53:18.172Z,12.54
2023-02-13T11:54:18.195Z,12.57
2023-02-13T11:55:18.215Z,12.50
2023-02-13T11:56:18.249Z,12.45
2023-02-13T11:57:18.263Z,12.42
2023-02-13T11:58:18.327Z,12.37
2023-02-13T11:59:18.316Z,12.32
2023-02-13T12:00:18.337Z,12.45
2023-02-13T12:01:18.362Z,12.42
2023-02-13T12:02:18.417Z,12.42
2023-02-13T12:03:18.533Z,12.38
2023-02-13T12:04:18.434Z,12.46
2023-02-13T12:05:18.490Z,12.46
2023-02-13T12:06:18.492Z,12.45
2023-02-13T12:07:18.523Z,12.42
2023-02-13T12:08:18.535Z,12.34
2023-02-13T12:09:18.561Z,12.28
2023-02-13T12:10:18.593Z,12.32
2023-02-13T12:11:18.599Z,12.34
2023-02-13T12:12:18.623Z,12.31
2023-02-13T12:13:18.648Z,12.28
2023-02-13T12:14:18.668Z,12.16
2023-02-13T12:15:18.692Z,12.27
2023-02-13T12:16:18.753Z,12.19
2023-02-13T12:17:30.648Z,12.34
2023-02-13T12:18:18.764Z,12.23
2023-02-13T12:19:18.787Z,12.31
2023-02-13T12:20:18.811Z,12.31
2023-02-13T12:21:18.831Z,12.29
2023-02-13T12:22:18.859Z,12.31
2023-02-13T12:23:18.881Z,12.29
2023-02-13T12:24:18.906Z,12.35
2023-02-13T12:25:18.928Z,12.29
2023-02-13T12:26:18.958Z,12.32
2023-02-13T12:27:18.972Z,12.32
2023-02-13T12:28:19.044Z,12.27
2023-02-13T12:29:19.032Z,12.24
2023-02-13T12:30:19.140Z,12.20
2023-02-13T12:31:19.160Z,12.20
2023-02-13T12:32:19.093Z,12.20
2023-02-13T12:33:19.114Z,12.16
2023-02-13T12:34:19.134Z,12.07
2023-02-13T12:35:19.153Z,12.05
2023-02-13T12:36:19.176Z,12.01
2023-02-13T12:37:19.204Z,11.95
2023-02-13T12:38:19.236Z,11.96
2023-02-13T12:39:19.264Z,12.02
2023-02-13T12:40:19.268Z,12.10
2023-02-13T12:41:19.296Z,12.07
2023-02-13T12:42:19.316Z,12.04
2023-02-13T12:43:19.347Z,11.99
2023-02-13T12:44:19.389Z,11.98
2023-02-13T12:45:19.392Z,11.98
2023-02-13T12:46:19.409Z,11.96
2023-02-13T12:47:19.444Z,11.99
2023-02-13T12:48:19.472Z,12.09
2023-02-13T12:49:19.473Z,12.10
2023-02-13T12:50:19.502Z,12.04
2023-02-13T12:51:19.524Z,11.99
2023-02-13T12:52:19.544Z,11.96
2023-02-13T12:53:19.566Z,11.85
2023-02-13T12:54:19.595Z,11.90
2023-02-13T12:55:19.629Z,11.82
2023-02-13T12:56:19.629Z,11.72
2023-02-13T12:57:19.657Z,11.73
2023-02-13T12:58:19.682Z,11.78
2023-02-13T12:59:19.702Z,11.75
2023-02-13T13:00:19.738Z,11.73
2023-02-13T13:01:19.852Z,11.72
2023-02-13T13:02:19.794Z,11.82
2023-02-13T13:03:19.798Z,11.73
2023-02-13T13:04:19.817Z,11.80
2023-02-13T13:05:19.850Z,11.67
2023-02-13T13:06:19.878Z,11.58
2023-02-13T13:07:19.902Z,11.54
2023-02-13T13:08:19.913Z,11.58
2023-02-13T13:09:19.927Z,11.55